createdAt,value
2018-11-05T00:01:07.088Z,35.87
2018-11-05T00:03:38.011Z,37.67
2018-11-05T00:06:08.908Z,35.13
2018-11-05T00:08:39.846Z,36.53
2018-11-05T00:11:10.975Z,34.50
2018-11-05T00:13:42.041Z,36.60
2018-11-05T00:16:12.937Z,32.97
2018-11-05T00:18:44.158Z,33.80
2018-11-05T00:21:14.998Z,33.17
2018-11-05T00:23:45.858Z,31.50
2018-11-05T00:26:16.819Z,29.93
2018-11-05T00:28:47.799Z,35.23
2018-11-05T00:31:18.651Z,30.07
2018-11-05T00:33:49.525Z,29.10
2018-11-05T00:36:20.462Z,30.23
2018-11-05T00:38:51.473Z,32.23
2018-11-05T00:41:22.386Z,36.40
2018-11-05T00:43:53.107Z,29.17
2018-11-05T00:46:23.886Z,30.93
2018-11-05T00:48:54.652Z,29.63
2018-11-05T00:51:25.432Z,29.97
2018-11-05T00:53:56.386Z,31.20
2018-11-05T00:56:27.127Z,31.77
2018-11-05T00:58:58.042Z,31.10
2018-11-05T01:01:29.195Z,30.70
2018-11-05T01:04:00.029Z,30.20
2018-11-05T01:06:30.818Z,26.60
2018-11-05T01:09:01.636Z,29.43
2018-11-05T01:11:32.465Z,31.30
2018-11-05T01:14:03.392Z,30.40
2018-11-05T01:16:34.128Z,47.10
2018-11-05T01:19:05.559Z,36.90
2018-11-05T01:21:36.441Z,32.80
2018-11-05T01:24:07.240Z,30.50
2018-11-05T01:26:38.110Z,31.33
2018-11-05T01:29:08.999Z,32.73
2018-11-05T01:31:39.878Z,32.27
2018-11-05T01:34:10.674Z,30.33
2018-11-05T01:36:41.582Z,35.53
2018-11-05T01:39:12.502Z,29.50
2018-11-05T01:41:43.341Z,31.03
2018-11-05T01:44:14.118Z,30.27
2018-11-05T01:46:45.353Z,29.93
2018-11-05T01:49:16.174Z,29.63
2018-11-05T01:51:47.066Z,29.67
2018-11-05T01:54:17.855Z,30.60
2018-11-05T01:56:48.841Z,28.53
2018-11-05T01:59:19.860Z,30.60
2018-11-05T02:01:50.697Z,27.53
2018-11-05T02:04:21.794Z,31.67
2018-11-05T02:06:52.624Z,34.80
2018-11-05T02:09:23.424Z,30.40
2018-11-05T02:11:55.110Z,28.20
2018-11-05T02:14:25.863Z,29.10
2018-11-05T02:16:56.570Z,30.97
2018-11-05T02:19:27.736Z,30.83
2018-11-05T02:21:58.486Z,29.57
2018-11-05T02:24:29.332Z,31.13
2018-11-05T02:27:00.198Z,29.77
2018-11-05T02:29:30.969Z,28.77
2018-11-05T02:32:01.769Z,32.47
2018-11-05T02:34:32.733Z,32.13
2018-11-05T02:37:03.795Z,31.77
2018-11-05T02:39:34.849Z,30.23
2018-11-05T02:42:06.117Z,33.33
2018-11-05T02:44:37.114Z,28.67
2018-11-05T02:47:08.117Z,37.10
2018-11-05T02:49:39.028Z,37.93
2018-11-05T02:52:09.934Z,32.23
2018-11-05T02:54:40.869Z,32.13
2018-11-05T02:57:12.098Z,30.93
2018-11-05T02:59:42.935Z,37.60
2018-11-05T03:02:13.882Z,35.63
2018-11-05T03:04:44.731Z,33.67
2018-11-05T03:07:15.450Z,33.73
2018-11-05T03:09:46.241Z,31.87
2018-11-05T03:12:17.321Z,30.90
2018-11-05T03:14:47.998Z,33.77
2018-11-05T03:17:18.770Z,31.80
2018-11-05T03:19:49.482Z,31.80
2018-11-05T03:22:20.305Z,34.43
2018-11-05T03:24:51.007Z,31.40
2018-11-05T03:27:21.768Z,30.77
2018-11-05T03:29:53.490Z,32.37
2018-11-05T03:32:24.194Z,33.33
2018-11-05T03:34:54.980Z,30.57
2018-11-05T03:37:25.755Z,31.73
2018-11-05T03:39:56.577Z,30.90
2018-11-05T03:42:27.418Z,34.80
2018-11-05T03:44:58.227Z,33.30
2018-11-05T03:47:29.045Z,37.90
2018-11-05T03:49:59.823Z,41.00
2018-11-05T03:52:30.710Z,40.03
2018-11-05T03:55:01.545Z,38.70
2018-11-05T03:57:32.379Z,36.47
2018-11-05T04:00:03.175Z,37.27
2018-11-05T04:02:33.906Z,41.60
2018-11-05T04:05:04.968Z,47.70
2018-11-05T04:07:35.923Z,35.97
2018-11-05T04:10:07.892Z,37.70
2018-11-05T04:12:39.341Z,41.63
2018-11-05T04:15:11.481Z,34.43
2018-11-05T04:17:42.399Z,35.20
2018-11-05T04:20:14.714Z,32.13
2018-11-05T04:22:45.945Z,30.90
2018-11-05T04:25:17.306Z,31.10
2018-11-05T04:27:48.227Z,32.73
2018-11-05T04:30:19.109Z,31.00
2018-11-05T04:32:50.001Z,28.30
2018-11-05T04:35:20.985Z,35.40
2018-11-05T04:37:51.859Z,31.83
2018-11-05T04:40:22.818Z,34.13
2018-11-05T04:42:53.893Z,33.27
2018-11-05T04:45:24.861Z,28.50
2018-11-05T04:47:56.073Z,36.87
2018-11-05T04:50:27.138Z,36.60
2018-11-05T04:52:58.236Z,32.30
2018-11-05T04:55:29.240Z,32.07
2018-11-05T04:58:00.164Z,32.67
2018-11-05T05:00:31.082Z,29.57
2018-11-05T05:03:02.016Z,27.23
2018-11-05T05:05:32.765Z,28.77
2018-11-05T05:08:03.547Z,29.27
2018-11-05T05:10:34.474Z,33.73
2018-11-05T05:13:05.521Z,34.40
2018-11-05T05:15:36.863Z,34.83
2018-11-05T05:18:07.899Z,33.20
2018-11-05T05:20:38.878Z,34.03
2018-11-05T05:23:09.889Z,34.60
2018-11-05T05:25:40.923Z,32.67
2018-11-05T05:28:11.765Z,31.63
2018-11-05T05:30:42.946Z,26.13
2018-11-05T05:33:13.872Z,26.70
2018-11-05T05:35:44.714Z,25.70
2018-11-05T05:38:15.742Z,26.67
2018-11-05T05:40:46.681Z,25.73
2018-11-05T05:43:17.834Z,26.43
2018-11-05T05:45:48.840Z,31.83
2018-11-05T05:48:19.927Z,30.83
2018-11-05T05:50:50.758Z,30.77
2018-11-05T05:53:21.764Z,29.13
2018-11-05T05:55:52.796Z,32.03
2018-11-05T05:58:23.701Z,31.23
2018-11-05T06:00:54.734Z,30.53
2018-11-05T06:03:25.693Z,31.10
2018-11-05T06:05:56.930Z,30.30
2018-11-05T06:08:27.952Z,30.67
2018-11-05T06:10:58.981Z,30.63
2018-11-05T06:13:29.772Z,26.37
2018-11-05T06:16:01.140Z,29.73
2018-11-05T06:18:32.094Z,28.30
2018-11-05T06:21:03.115Z,45.90
2018-11-05T06:23:33.961Z,31.30
2018-11-05T06:26:05.267Z,39.33
2018-11-05T06:28:36.311Z,63.33
2018-11-05T06:31:07.443Z,33.27
2018-11-05T06:33:38.488Z,27.40
2018-11-05T06:36:09.595Z,29.80
2018-11-05T06:38:40.694Z,27.10
2018-11-05T06:41:11.919Z,32.07
2018-11-05T06:43:42.914Z,28.50
2018-11-05T06:46:14.088Z,33.10
2018-11-05T06:48:45.243Z,35.67
2018-11-05T06:51:16.227Z,29.47
2018-11-05T06:53:47.428Z,27.83
2018-11-05T06:56:18.330Z,26.43
2018-11-05T06:58:49.367Z,27.83
2018-11-05T07:01:20.325Z,30.00
2018-11-05T07:03:51.669Z,30.70
2018-11-05T07:06:22.576Z,32.37
2018-11-05T07:08:53.408Z,33.60
2018-11-05T07:11:24.384Z,32.50
2018-11-05T07:13:55.359Z,28.20
2018-11-05T07:16:26.443Z,28.30
2018-11-05T07:18:57.668Z,26.97
2018-11-05T07:21:28.552Z,30.43
2018-11-05T07:23:59.669Z,27.00
2018-11-05T07:26:31.067Z,27.70
2018-11-05T07:29:02.295Z,30.10
2018-11-05T07:31:34.045Z,27.33
2018-11-05T07:34:05.463Z,28.83
2018-11-05T07:36:36.392Z,29.03
2018-11-05T07:39:11.715Z,26.10
2018-11-05T07:41:43.402Z,24.97
2018-11-05T07:44:14.423Z,26.07
2018-11-05T07:46:45.504Z,24.20
2018-11-05T07:49:16.656Z,22.53
2018-11-05T07:51:47.782Z,25.40
2018-11-05T07:54:18.701Z,22.53
2018-11-05T07:56:49.998Z,22.20
2018-11-05T07:59:20.908Z,25.70
2018-11-05T08:01:51.874Z,22.00
2018-11-05T08:04:22.857Z,23.87
2018-11-05T08:06:54.041Z,25.33
2018-11-05T08:09:25.086Z,22.73
2018-11-05T08:11:56.147Z,30.23
2018-11-05T08:14:27.183Z,25.07
2018-11-05T08:16:58.352Z,24.20
2018-11-05T08:19:29.421Z,24.17
2018-11-05T08:22:00.403Z,26.67
2018-11-05T08:24:31.474Z,24.97
2018-11-05T08:27:02.575Z,29.37
2018-11-05T08:29:33.514Z,28.33
2018-11-05T08:32:04.698Z,32.87
2018-11-05T08:34:35.757Z,30.30
2018-11-05T08:37:06.724Z,29.37
2018-11-05T08:39:37.792Z,31.07
2018-11-05T08:42:09.060Z,33.27
2018-11-05T08:44:40.083Z,39.73
2018-11-05T08:47:11.053Z,36.03
2018-11-05T08:49:42.083Z,33.03
2018-11-05T08:52:13.128Z,32.03
2018-11-05T08:54:44.110Z,29.10
2018-11-05T08:57:15.068Z,33.07
2018-11-05T08:59:46.081Z,31.67
2018-11-05T09:02:17.457Z,35.40
2018-11-05T09:04:48.656Z,38.10
2018-11-05T09:07:20.122Z,34.90
2018-11-05T09:09:51.262Z,40.97
2018-11-05T09:12:22.186Z,35.90
2018-11-05T09:14:53.141Z,37.80
2018-11-05T09:17:24.070Z,40.37
2018-11-05T09:19:55.072Z,38.90
2018-11-05T09:22:25.991Z,31.77
2018-11-05T09:24:56.854Z,32.20
2018-11-05T09:27:28.276Z,35.53
2018-11-05T09:29:59.355Z,32.97
2018-11-05T09:32:30.247Z,34.73
2018-11-05T09:35:01.250Z,30.17
2018-11-05T09:37:32.326Z,30.93
2018-11-05T09:40:03.236Z,34.30
2018-11-05T09:42:34.744Z,31.90
2018-11-05T09:45:06.643Z,29.70
2018-11-05T09:47:37.761Z,29.80
2018-11-05T09:50:09.972Z,24.17
2018-11-05T09:52:41.092Z,25.60
2018-11-05T09:55:12.873Z,22.40
2018-11-05T09:57:43.706Z,21.13
2018-11-05T10:00:21.162Z,18.17
2018-11-05T10:03:00.559Z,19.33
2018-11-05T10:05:31.433Z,22.87
2018-11-05T10:08:02.462Z,20.20
2018-11-05T10:10:33.825Z,20.30
2018-11-05T10:13:04.788Z,22.50
2018-11-05T10:15:35.839Z,21.33
2018-11-05T10:18:07.256Z,22.73
2018-11-05T10:20:38.212Z,26.37
2018-11-05T10:23:09.209Z,22.17
2018-11-05T10:25:40.125Z,18.87
2018-11-05T10:28:10.942Z,20.33
2018-11-05T10:30:42.016Z,23.77
2018-11-05T10:33:12.986Z,21.83
2018-11-05T10:36:02.346Z,22.23
2018-11-05T10:38:33.443Z,17.17
2018-11-05T10:41:04.455Z,22.57
2018-11-05T10:43:35.537Z,24.40
2018-11-05T10:46:07.172Z,19.17
2018-11-05T10:48:38.136Z,24.40
2018-11-05T10:51:09.089Z,21.87
2018-11-05T10:53:40.087Z,21.90
2018-11-05T10:56:11.154Z,32.23
2018-11-05T10:58:42.397Z,21.80
2018-11-05T11:01:14.626Z,18.57
2018-11-05T11:03:50.517Z,22.00
2018-11-05T11:06:21.530Z,23.10
2018-11-05T11:08:52.344Z,20.03
2018-11-05T11:11:23.298Z,23.70
2018-11-05T11:13:54.326Z,21.80
2018-11-05T11:16:25.390Z,19.67
2018-11-05T11:18:56.245Z,25.70
2018-11-05T11:21:27.299Z,19.27
2018-11-05T11:23:58.361Z,34.23
2018-11-05T11:26:29.249Z,21.27
2018-11-05T11:29:00.278Z,24.27
2018-11-05T11:31:31.110Z,24.37
2018-11-05T11:34:02.074Z,22.43
2018-11-05T11:36:33.088Z,21.50
2018-11-05T11:39:04.270Z,20.53
2018-11-05T11:41:35.149Z,22.30
2018-11-05T11:44:06.955Z,23.17
2018-11-05T11:46:38.395Z,21.93
2018-11-05T11:49:10.267Z,26.53
2018-11-05T11:51:41.326Z,21.10
2018-11-05T11:54:12.622Z,19.60
2018-11-05T11:56:43.545Z,20.30
2018-11-05T11:59:14.661Z,21.27
2018-11-05T12:02:17.492Z,21.10
2018-11-05T12:04:48.401Z,19.60
2018-11-05T12:07:19.434Z,23.07
2018-11-05T12:09:56.842Z,21.33
2018-11-05T12:12:27.890Z,22.73
2018-11-05T12:14:59.029Z,22.40
2018-11-05T12:17:29.960Z,25.13
2018-11-05T12:20:00.884Z,22.90
2018-11-05T12:22:31.937Z,16.90
2018-11-05T12:25:03.096Z,17.57
2018-11-05T12:27:34.041Z,21.73
2018-11-05T12:30:05.921Z,19.83
2018-11-05T12:32:36.818Z,22.00
2018-11-05T12:35:09.759Z,18.87
2018-11-05T12:37:41.614Z,20.73
2018-11-05T12:40:14.865Z,20.83
2018-11-05T12:42:46.973Z,16.87
2018-11-05T12:45:18.050Z,20.10
2018-11-05T12:47:48.915Z,17.10
2018-11-05T12:50:21.664Z,14.93
2018-11-05T12:52:53.807Z,17.97
2018-11-05T12:55:24.785Z,12.43
2018-11-05T12:57:55.727Z,14.07
2018-11-05T13:00:26.877Z,13.07
2018-11-05T13:02:59.286Z,12.33
2018-11-05T13:05:31.514Z,17.70
2018-11-05T13:08:02.746Z,15.10
2018-11-05T13:10:33.635Z,11.43
2018-11-05T13:13:04.725Z,11.83
2018-11-05T13:15:35.661Z,13.60
2018-11-05T13:18:06.719Z,13.53
2018-11-05T13:20:37.719Z,12.50
2018-11-05T13:23:08.534Z,13.60
2018-11-05T13:25:39.550Z,14.03
2018-11-05T13:28:10.484Z,12.87
2018-11-05T13:30:41.383Z,14.10
2018-11-05T13:33:12.350Z,17.73
2018-11-05T13:35:43.393Z,14.67
2018-11-05T13:38:15.008Z,12.53
2018-11-05T13:40:45.458Z,13.03
2018-11-05T13:43:16.391Z,12.80
2018-11-05T13:45:47.587Z,18.80
2018-11-05T13:48:18.680Z,19.43
2018-11-05T13:50:49.306Z,18.50
2018-11-05T13:53:20.190Z,21.60
2018-11-05T13:55:51.395Z,15.83
2018-11-05T13:58:22.562Z,15.77
2018-11-05T14:00:53.543Z,18.37
2018-11-05T14:03:25.031Z,17.47
2018-11-05T14:05:56.018Z,13.50
2018-11-05T14:08:27.134Z,13.93
2018-11-05T14:10:58.110Z,11.10
2018-11-05T14:13:29.189Z,13.03
2018-11-05T14:16:00.320Z,13.37
2018-11-05T14:18:31.358Z,15.67
2018-11-05T14:21:02.363Z,13.10
2018-11-05T14:23:33.397Z,10.67
2018-11-05T14:26:04.662Z,11.33
2018-11-05T14:28:35.738Z,11.77
2018-11-05T14:31:06.905Z,14.03
2018-11-05T14:33:38.032Z,13.97
2018-11-05T14:36:09.098Z,19.47
2018-11-05T14:38:40.497Z,14.97
2018-11-05T14:41:11.631Z,19.77
2018-11-05T14:43:42.902Z,15.50
2018-11-05T14:46:14.032Z,10.47
2018-11-05T14:48:45.117Z,12.77
2018-11-05T14:51:16.336Z,12.47
2018-11-05T14:53:47.315Z,17.10
2018-11-05T14:56:18.455Z,22.57
2018-11-05T14:58:49.540Z,22.83
2018-11-05T15:01:20.687Z,24.37
2018-11-05T15:03:51.841Z,18.40
2018-11-05T15:06:23.207Z,20.00
2018-11-05T15:08:54.377Z,19.57
2018-11-05T15:11:25.497Z,28.73
2018-11-05T15:13:56.585Z,18.87
2018-11-05T15:16:27.925Z,19.00
2018-11-05T15:18:59.409Z,22.70
2018-11-05T15:21:30.186Z,21.07
2018-11-05T15:24:02.187Z,54.33
2018-11-05T15:26:33.248Z,48.33
2018-11-05T15:29:04.420Z,46.30
2018-11-05T15:31:35.631Z,43.07
2018-11-05T15:34:06.820Z,51.27
2018-11-05T15:36:37.851Z,47.50
2018-11-05T15:39:09.895Z,89.00
2018-11-05T15:41:41.177Z,65.77
2018-11-05T15:44:12.271Z,43.27
2018-11-05T15:46:43.462Z,30.00
2018-11-05T15:49:15.020Z,22.07
2018-11-05T15:51:46.623Z,16.77
2018-11-05T15:54:17.518Z,22.80
2018-11-05T15:56:48.436Z,15.97
2018-11-05T15:59:20.345Z,14.30
2018-11-05T16:01:51.455Z,22.57
2018-11-05T16:04:22.571Z,24.83
2018-11-05T16:06:53.588Z,34.13
2018-11-05T16:09:24.608Z,18.67
2018-11-05T16:11:55.585Z,20.27
2018-11-05T16:14:26.808Z,16.50
2018-11-05T16:16:57.968Z,17.23
2018-11-05T16:19:29.108Z,13.43
2018-11-05T16:22:00.483Z,23.30
2018-11-05T16:24:31.965Z,23.03
2018-11-05T16:27:03.201Z,16.10
2018-11-05T16:29:40.794Z,15.50
2018-11-05T16:32:11.929Z,19.90
2018-11-05T16:34:43.204Z,19.63
2018-11-05T16:37:14.175Z,15.30
2018-11-05T16:39:45.172Z,15.47
2018-11-05T16:42:16.219Z,20.07
2018-11-05T16:44:47.134Z,18.27
2018-11-05T16:47:18.204Z,25.80
2018-11-05T16:49:49.214Z,27.93
2018-11-05T16:52:20.173Z,50.60
2018-11-05T16:54:57.190Z,31.30
2018-11-05T16:57:28.186Z,34.83
2018-11-05T16:59:59.402Z,30.10
2018-11-05T17:02:30.714Z,26.00
2018-11-05T17:05:01.470Z,21.13
2018-11-05T17:07:32.301Z,26.87
2018-11-05T17:10:03.328Z,36.00
2018-11-05T17:12:34.254Z,32.73
2018-11-05T17:15:06.532Z,34.73
2018-11-05T17:17:37.907Z,39.03
2018-11-05T17:20:12.360Z,35.20
2018-11-05T17:22:43.867Z,29.83
2018-11-05T17:25:15.427Z,25.57
2018-11-05T17:27:47.484Z,31.80
2018-11-05T17:30:21.514Z,38.27
2018-11-05T17:32:52.666Z,42.67
2018-11-05T17:35:24.091Z,41.00
2018-11-05T17:37:56.035Z,37.57
2018-11-05T17:40:27.286Z,32.60
2018-11-05T17:42:58.530Z,44.97
2018-11-05T17:45:29.616Z,47.53
2018-11-05T17:48:01.588Z,37.80
2018-11-05T17:50:32.584Z,30.10
2018-11-05T17:53:03.792Z,29.53
2018-11-05T17:55:34.990Z,36.77
2018-11-05T17:58:06.180Z,38.27
2018-11-05T18:00:37.530Z,39.03
2018-11-05T18:03:08.682Z,34.77
2018-11-05T18:05:39.683Z,30.97
2018-11-05T18:08:10.973Z,29.33
2018-11-05T18:10:42.202Z,31.27
2018-11-05T18:13:13.528Z,48.37
2018-11-05T18:15:44.735Z,32.87
2018-11-05T18:18:16.063Z,40.63
2018-11-05T18:20:47.411Z,36.17
2018-11-05T18:23:18.739Z,33.07
2018-11-05T18:25:50.930Z,39.63
2018-11-05T18:28:22.080Z,29.53
2018-11-05T18:30:53.312Z,27.77
2018-11-05T18:33:24.585Z,32.30
2018-11-05T18:35:55.998Z,30.73
2018-11-05T18:38:27.289Z,40.50
2018-11-05T18:40:58.637Z,35.73
2018-11-05T18:43:29.776Z,42.57
2018-11-05T18:46:00.922Z,41.27
2018-11-05T18:48:32.119Z,50.47
2018-11-05T18:51:04.524Z,41.33
2018-11-05T18:53:36.125Z,33.77
2018-11-05T18:56:07.814Z,31.73
2018-11-05T18:58:39.110Z,32.77
2018-11-05T19:01:11.009Z,33.73
2018-11-05T19:03:42.683Z,28.93
2018-11-05T19:06:13.581Z,26.93
2018-11-05T19:08:44.916Z,31.60
2018-11-05T19:11:16.060Z,34.20
2018-11-05T19:13:47.212Z,33.50
2018-11-05T19:16:18.429Z,37.57
2018-11-05T19:18:49.683Z,32.83
2018-11-05T19:21:20.769Z,39.20
2018-11-05T19:23:52.104Z,39.03
2018-11-05T19:26:23.228Z,38.40
2018-11-05T19:28:54.598Z,36.03
2018-11-05T19:31:26.419Z,35.77
2018-11-05T19:33:57.858Z,29.43
2018-11-05T19:36:29.763Z,32.83
2018-11-05T19:39:00.969Z,33.70
2018-11-05T19:41:32.244Z,38.23
2018-11-05T19:44:03.290Z,33.93
2018-11-05T19:46:34.626Z,35.27
2018-11-05T19:49:06.094Z,31.63
2018-11-05T19:51:37.594Z,29.97
2018-11-05T19:54:08.933Z,32.93
2018-11-05T19:56:40.350Z,32.47
2018-11-05T19:59:11.482Z,33.50
2018-11-05T20:01:42.853Z,35.93
2018-11-05T20:04:14.008Z,38.00
2018-11-05T20:06:45.286Z,35.20
2018-11-05T20:09:16.791Z,32.67
2018-11-05T20:11:48.080Z,29.57
2018-11-05T20:14:19.363Z,31.63
2018-11-05T20:16:50.792Z,34.80
2018-11-05T20:19:22.445Z,32.90
2018-11-05T20:21:53.662Z,33.07
2018-11-05T20:24:25.197Z,35.00
2018-11-05T20:26:56.339Z,32.20
2018-11-05T20:29:27.694Z,28.23
2018-11-05T20:31:59.455Z,34.50
2018-11-05T20:34:30.674Z,27.87
2018-11-05T20:37:01.969Z,36.87
2018-11-05T20:39:34.706Z,72.57
2018-11-05T20:42:06.584Z,33.37
2018-11-05T20:44:37.469Z,31.27
2018-11-05T20:47:08.913Z,36.43
2018-11-05T20:49:40.294Z,27.47
2018-11-05T20:52:11.385Z,55.17
2018-11-05T20:54:42.795Z,67.23
2018-11-05T20:57:16.772Z,39.67
2018-11-05T20:59:48.245Z,34.73
2018-11-05T21:02:20.158Z,44.10
2018-11-05T21:04:51.521Z,37.97
2018-11-05T21:07:23.215Z,34.53
2018-11-05T21:09:54.714Z,30.67
2018-11-05T21:12:26.238Z,33.27
2018-11-05T21:14:57.372Z,37.83
2018-11-05T21:17:28.739Z,34.83
2018-11-05T21:20:00.393Z,33.73
2018-11-05T21:22:31.718Z,31.27
2018-11-05T21:25:02.651Z,29.07
2018-11-05T21:27:33.588Z,34.33
2018-11-05T21:30:04.902Z,30.23
2018-11-05T21:32:36.262Z,32.77
2018-11-05T21:35:10.078Z,28.20
2018-11-05T21:37:41.739Z,36.80
2018-11-05T21:40:14.266Z,40.57
2018-11-05T21:42:45.265Z,35.67
2018-11-05T21:45:16.914Z,33.17
2018-11-05T21:47:48.261Z,30.97
2018-11-05T21:50:20.812Z,31.57
2018-11-05T21:52:52.392Z,31.07
2018-11-05T21:55:23.831Z,33.20
2018-11-05T21:57:55.255Z,32.03
2018-11-05T22:00:26.725Z,27.00
2018-11-05T22:02:59.640Z,33.63
2018-11-05T22:05:31.268Z,35.23
2018-11-05T22:08:02.643Z,41.17
2018-11-05T22:10:34.252Z,35.53
2018-11-05T22:13:05.816Z,40.63
2018-11-05T22:15:42.554Z,35.07
2018-11-05T22:18:14.729Z,38.90
2018-11-05T22:20:45.783Z,35.00
2018-11-05T22:23:17.267Z,39.60
2018-11-05T22:25:48.353Z,39.30
2018-11-05T22:28:20.006Z,38.17
2018-11-05T22:30:51.546Z,36.27
2018-11-05T22:33:23.033Z,33.67
2018-11-05T22:35:54.566Z,36.90
2018-11-05T22:38:25.860Z,36.03
2018-11-05T22:40:56.895Z,37.53
2018-11-05T22:43:28.037Z,34.73
2018-11-05T22:45:59.143Z,36.07
2018-11-05T22:48:30.061Z,39.47
2018-11-05T22:51:01.246Z,39.70
2018-11-05T22:53:32.743Z,41.57
2018-11-05T22:56:04.215Z,39.23
2018-11-05T22:58:36.009Z,37.63
2018-11-05T23:01:08.679Z,35.73
2018-11-05T23:03:39.557Z,37.60
2018-11-05T23:06:10.589Z,38.87
2018-11-05T23:08:41.513Z,37.83
2018-11-05T23:11:12.583Z,42.70
2018-11-05T23:13:43.568Z,40.70
2018-11-05T23:16:14.599Z,42.63
2018-11-05T23:18:45.716Z,42.33
2018-11-05T23:21:16.757Z,38.97
2018-11-05T23:23:47.853Z,38.00
2018-11-05T23:26:18.783Z,38.83
2018-11-05T23:28:49.851Z,40.23
2018-11-05T23:31:21.284Z,38.83
2018-11-05T23:33:52.502Z,37.83
2018-11-05T23:36:23.598Z,38.40
2018-11-05T23:38:54.633Z,39.30
2018-11-05T23:41:25.705Z,40.90
2018-11-05T23:43:56.761Z,40.90
2018-11-05T23:46:27.893Z,39.90
2018-11-05T23:48:58.895Z,41.07
2018-11-05T23:51:29.925Z,37.93
2018-11-05T23:54:00.840Z,43.23
2018-11-05T23:56:32.227Z,41.77
2018-11-05T23:59:03.246Z,49.60
